Neillsville, Wisconsin
Current Conditions -  °F | °C
As of 2:54 PM on Friday 19 Dec 2014 (Local Time) from KMFI Reporting Station
Overcast Overcast  
Wind Chill: -9°   Ceiling: 700
Heat Index: -4°   Visibility: 10mi
Dew Point: -7°   Wind: 7mph
Humidity: 84%   Direction: 180°S
Pressure: 30.23"   Gusts: NA
Location:  44.56°N, 90.6°W
Report Text: KMFI 192054Z AUTO 18006KT 10SM OVC007 M04/M07 A3023 RMK AO2 SLP258 T10441067 58003
Loading
Personal Weather Stations






























Interactive Weather Map New forecast layout! Learn more

10-Day Weather Forecast

Advertisements
Track Severe Weather on mobile